createdAt,value
2018-07-06T00:00:52.255Z,99.99
2018-07-06T00:01:52.267Z,99.99
2018-07-06T00:02:52.204Z,99.99
2018-07-06T00:03:52.192Z,99.99
2018-07-06T00:04:52.105Z,99.99
2018-07-06T00:05:52.075Z,99.99
2018-07-06T00:06:52.034Z,99.99
2018-07-06T00:07:52.021Z,99.99
2018-07-06T00:08:52.042Z,99.99
2018-07-06T00:09:52.000Z,99.99
2018-07-06T00:10:51.892Z,99.99
2018-07-06T00:11:51.853Z,99.99
2018-07-06T00:12:51.824Z,99.99
2018-07-06T00:13:51.777Z,99.99
2018-07-06T00:14:51.779Z,99.99
2018-07-06T00:15:51.694Z,99.99
2018-07-06T00:16:51.689Z,99.99
2018-07-06T00:18:00.137Z,99.99
2018-07-06T00:18:51.575Z,99.99
2018-07-06T00:19:51.567Z,99.99
2018-07-06T00:20:51.546Z,99.99
2018-07-06T00:21:51.482Z,99.99
2018-07-06T00:22:51.437Z,99.99
2018-07-06T00:23:51.392Z,99.99
2018-07-06T00:24:51.374Z,99.99
2018-07-06T00:25:51.309Z,99.99
2018-07-06T00:26:51.353Z,99.99
2018-07-06T00:27:51.292Z,99.99
2018-07-06T00:28:51.290Z,99.99
2018-07-06T00:29:51.210Z,99.99
2018-07-06T00:30:51.202Z,99.99
2018-07-06T00:31:51.104Z,99.99
2018-07-06T00:32:51.067Z,99.99
2018-07-06T00:33:51.031Z,99.99
2018-07-06T00:34:51.000Z,99.99
2018-07-06T00:35:50.948Z,99.99
2018-07-06T00:36:50.956Z,99.99
2018-07-06T00:37:50.905Z,99.99
2018-07-06T00:38:50.825Z,99.99
2018-07-06T00:39:50.819Z,99.99
2018-07-06T00:40:50.838Z,99.99
2018-07-06T00:41:50.712Z,99.99
2018-07-06T00:42:50.688Z,99.99
2018-07-06T00:43:50.649Z,99.99
2018-07-06T00:44:50.715Z,99.99
2018-07-06T00:45:50.600Z,99.99
2018-07-06T00:46:50.556Z,99.99
2018-07-06T00:47:50.507Z,99.99
2018-07-06T00:48:50.474Z,99.99
2018-07-06T00:49:50.522Z,99.99
2018-07-06T00:50:50.366Z,99.99
2018-07-06T00:51:50.346Z,99.99
2018-07-06T00:52:50.303Z,99.99
2018-07-06T00:53:50.265Z,99.99
2018-07-06T00:54:50.282Z,99.99
2018-07-06T00:55:50.174Z,99.99
2018-07-06T00:56:50.146Z,99.99
2018-07-06T00:57:50.133Z,99.99
2018-07-06T00:58:50.083Z,99.99
2018-07-06T00:59:50.125Z,99.99
2018-07-06T01:00:50.019Z,99.99
2018-07-06T01:01:50.109Z,99.99
2018-07-06T01:02:49.949Z,99.99
2018-07-06T01:03:49.929Z,99.99
2018-07-06T01:04:49.886Z,99.99
2018-07-06T01:05:49.884Z,99.99
2018-07-06T01:06:49.786Z,99.99
2018-07-06T01:07:49.790Z,99.99
2018-07-06T01:08:49.714Z,99.99
2018-07-06T01:09:49.689Z,99.99
2018-07-06T01:10:49.626Z,99.99
2018-07-06T01:11:49.589Z,99.99
2018-07-06T01:12:49.546Z,99.99
2018-07-06T01:13:49.500Z,99.99
2018-07-06T01:14:49.497Z,99.99
2018-07-06T01:15:49.437Z,99.99
2018-07-06T01:16:49.437Z,99.99
2018-07-06T01:17:49.355Z,99.99
2018-07-06T01:18:49.310Z,99.99
2018-07-06T01:19:49.307Z,99.99
2018-07-06T01:20:49.253Z,99.99
2018-07-06T01:21:49.253Z,99.99
2018-07-06T01:22:49.161Z,99.99
2018-07-06T01:23:49.190Z,99.99
2018-07-06T01:24:49.118Z,99.99
2018-07-06T01:25:49.054Z,99.99
2018-07-06T01:26:49.082Z,99.99
2018-07-06T01:27:49.018Z,99.99
2018-07-06T01:28:48.974Z,99.99
2018-07-06T01:29:48.962Z,99.99
2018-07-06T01:30:48.882Z,99.99
2018-07-06T01:31:48.887Z,99.99
2018-07-06T01:32:59.183Z,99.99
2018-07-06T01:33:48.742Z,99.99
2018-07-06T01:34:48.711Z,99.99
2018-07-06T01:35:48.776Z,99.99
2018-07-06T01:36:48.673Z,99.99
2018-07-06T01:37:48.599Z,99.99
2018-07-06T01:38:48.611Z,99.99
2018-07-06T01:39:48.530Z,99.99
2018-07-06T01:40:48.523Z,99.99
2018-07-06T01:41:48.470Z,99.99
2018-07-06T01:42:48.429Z,99.99
2018-07-06T01:43:48.348Z,99.99
2018-07-06T01:44:48.331Z,99.99
2018-07-06T01:45:48.384Z,99.99
2018-07-06T01:46:48.244Z,99.99
2018-07-06T01:47:48.208Z,99.99
2018-07-06T01:48:48.166Z,99.99
2018-07-06T01:49:48.171Z,99.99
2018-07-06T01:50:48.138Z,99.99
2018-07-06T01:51:48.058Z,99.99
2018-07-06T01:52:48.057Z,99.99
2018-07-06T01:53:47.983Z,99.99
2018-07-06T01:54:47.987Z,99.99
2018-07-06T01:55:47.930Z,99.99
2018-07-06T01:56:47.852Z,99.99
2018-07-06T01:57:47.860Z,99.99
2018-07-06T01:58:47.786Z,99.99
2018-07-06T01:59:47.772Z,99.99
2018-07-06T02:00:47.772Z,99.99
2018-07-06T02:01:47.693Z,99.99
2018-07-06T02:02:47.627Z,99.99
2018-07-06T02:03:47.603Z,99.99
2018-07-06T02:04:47.558Z,99.99
2018-07-06T02:05:47.518Z,99.99
2018-07-06T02:06:47.493Z,99.99
2018-07-06T02:07:47.508Z,99.99
2018-07-06T02:08:47.397Z,99.99
2018-07-06T02:09:47.359Z,99.99
2018-07-06T02:10:47.345Z,99.99
2018-07-06T02:11:48.283Z,99.99
2018-07-06T02:12:47.262Z,99.99
2018-07-06T02:13:47.219Z,99.99
2018-07-06T02:14:47.171Z,99.99
2018-07-06T02:15:47.140Z,99.99
2018-07-06T02:16:47.192Z,99.99
2018-07-06T02:17:47.051Z,99.99
2018-07-06T02:18:47.015Z,99.99
2018-07-06T02:19:47.037Z,99.99
2018-07-06T02:20:46.972Z,99.99
2018-07-06T02:21:46.947Z,99.99
2018-07-06T02:22:46.874Z,99.99
2018-07-06T02:23:46.830Z,99.99
2018-07-06T02:24:46.789Z,99.99
2018-07-06T02:25:46.765Z,99.99
2018-07-06T02:26:46.778Z,99.99
2018-07-06T02:27:46.688Z,99.99
2018-07-06T02:28:46.625Z,99.99
2018-07-06T02:29:46.591Z,99.99
2018-07-06T02:30:46.580Z,99.99
2018-07-06T02:31:46.561Z,99.99
2018-07-06T02:32:46.501Z,99.99
2018-07-06T02:33:46.463Z,99.99
2018-07-06T02:34:46.414Z,99.99
2018-07-06T02:35:46.356Z,99.99
2018-07-06T02:36:46.340Z,99.99
2018-07-06T02:37:46.318Z,99.99
2018-07-06T02:38:46.261Z,99.99
2018-07-06T02:39:46.279Z,99.99
2018-07-06T02:40:46.195Z,99.99
2018-07-06T02:41:46.146Z,99.99
2018-07-06T02:42:46.093Z,99.99
2018-07-06T02:43:46.097Z,99.99
2018-07-06T02:44:46.067Z,99.99
2018-07-06T02:45:45.984Z,99.99
2018-07-06T02:46:45.950Z,99.99
2018-07-06T02:47:45.924Z,99.99
2018-07-06T02:48:45.885Z,99.99
2018-07-06T02:49:45.833Z,99.99
2018-07-06T02:50:45.786Z,99.99
2018-07-06T02:51:45.770Z,99.99
2018-07-06T02:52:45.781Z,99.99
2018-07-06T02:53:45.735Z,99.99
2018-07-06T02:54:45.714Z,99.99
2018-07-06T02:55:45.617Z,99.99
2018-07-06T02:56:45.558Z,99.99
2018-07-06T02:57:45.532Z,99.99
2018-07-06T02:58:45.496Z,99.99
2018-07-06T02:59:45.536Z,99.99
2018-07-06T03:00:45.416Z,99.99
2018-07-06T03:01:45.375Z,99.99
2018-07-06T03:02:45.328Z,99.99
2018-07-06T03:03:45.305Z,99.99
2018-07-06T03:04:45.286Z,99.99
2018-07-06T03:05:45.242Z,99.99
2018-07-06T03:06:45.207Z,99.99
2018-07-06T03:07:45.135Z,99.99
2018-07-06T03:08:45.122Z,99.99
2018-07-06T03:09:45.093Z,99.99
2018-07-06T03:10:45.021Z,99.99
2018-07-06T03:11:45.043Z,99.99
2018-07-06T03:12:44.982Z,99.99
2018-07-06T03:13:44.948Z,99.99
2018-07-06T03:14:44.890Z,99.99
2018-07-06T03:15:44.839Z,99.99
2018-07-06T03:16:44.793Z,99.99
2018-07-06T03:17:44.859Z,99.99
2018-07-06T03:18:44.724Z,99.99
2018-07-06T03:19:44.703Z,99.99
2018-07-06T03:20:44.648Z,99.99
2018-07-06T03:21:44.694Z,99.99
2018-07-06T03:22:44.567Z,99.99
2018-07-06T03:23:44.540Z,99.99
2018-07-06T03:24:44.535Z,99.99
2018-07-06T03:25:44.454Z,99.99
2018-07-06T03:26:44.421Z,99.99
2018-07-06T03:27:44.386Z,99.99
2018-07-06T03:28:44.555Z,99.99
2018-07-06T03:29:44.463Z,99.99
2018-07-06T03:30:44.293Z,99.99
2018-07-06T03:31:44.285Z,99.99
2018-07-06T03:32:44.237Z,99.99
2018-07-06T03:33:44.183Z,99.99
2018-07-06T03:34:44.143Z,99.99
2018-07-06T03:35:44.146Z,99.99
2018-07-06T03:36:44.030Z,99.99
2018-07-06T03:37:43.988Z,99.99
2018-07-06T03:38:43.941Z,99.99
2018-07-06T03:39:43.906Z,99.99
2018-07-06T03:40:43.889Z,99.99
2018-07-06T03:41:43.847Z,99.99
2018-07-06T03:42:43.812Z,99.99
2018-07-06T03:43:43.756Z,99.99
2018-07-06T03:44:43.819Z,99.99
2018-07-06T03:45:43.698Z,99.99
2018-07-06T03:46:43.641Z,99.99
2018-07-06T03:47:43.606Z,99.99
2018-07-06T03:48:53.968Z,99.99
2018-07-06T03:49:43.515Z,99.99
2018-07-06T03:50:43.533Z,99.99
2018-07-06T03:51:43.475Z,99.99
2018-07-06T03:52:43.478Z,99.99
2018-07-06T03:53:43.368Z,99.99
2018-07-06T03:54:43.344Z,99.99
2018-07-06T03:55:43.290Z,99.99
2018-07-06T03:56:43.299Z,99.99
2018-07-06T03:57:43.227Z,99.99
2018-07-06T03:58:43.260Z,99.99
2018-07-06T03:59:43.160Z,99.99
2018-07-06T04:00:43.118Z,99.99
2018-07-06T04:01:43.097Z,99.99
2018-07-06T04:02:43.067Z,99.99
2018-07-06T04:03:42.985Z,99.99
2018-07-06T04:04:42.947Z,99.99
2018-07-06T04:05:42.950Z,99.99
2018-07-06T04:06:42.914Z,99.99
2018-07-06T04:07:42.906Z,99.99
2018-07-06T04:08:42.847Z,99.99
2018-07-06T04:09:42.756Z,99.99
2018-07-06T04:10:42.726Z,99.99
2018-07-06T04:11:42.696Z,99.99
2018-07-06T04:12:42.678Z,99.99
2018-07-06T04:13:42.615Z,99.99
2018-07-06T04:14:42.577Z,99.99
2018-07-06T04:15:42.521Z,99.99
2018-07-06T04:16:42.518Z,99.99
2018-07-06T04:17:42.460Z,99.99
2018-07-06T04:18:42.428Z,99.99
2018-07-06T04:19:42.386Z,99.99
2018-07-06T04:20:42.357Z,99.99
2018-07-06T04:21:42.350Z,99.99
2018-07-06T04:22:42.338Z,99.99
2018-07-06T04:23:42.245Z,99.99
2018-07-06T04:24:42.274Z,99.99
2018-07-06T04:25:42.183Z,99.99
2018-07-06T04:26:42.135Z,99.99
2018-07-06T04:27:42.089Z,99.99
2018-07-06T04:28:42.042Z,99.99
2018-07-06T04:29:42.004Z,99.99
2018-07-06T04:30:41.971Z,99.99
2018-07-06T04:31:41.954Z,99.99
2018-07-06T04:32:41.883Z,99.99
2018-07-06T04:33:41.847Z,99.99
2018-07-06T04:34:41.802Z,99.99
2018-07-06T04:35:51.993Z,99.99
2018-07-06T04:36:41.749Z,99.99
2018-07-06T04:37:41.682Z,99.99
2018-07-06T04:38:41.660Z,99.99
2018-07-06T04:39:41.600Z,99.99
2018-07-06T04:40:41.573Z,99.99
2018-07-06T04:41:41.547Z,99.99
2018-07-06T04:42:41.487Z,98.39
2018-07-06T04:43:41.472Z,95.79
2018-07-06T04:44:41.416Z,93.72
2018-07-06T04:45:41.384Z,93.24
2018-07-06T04:46:41.366Z,91.21
2018-07-06T04:47:41.311Z,90.73
2018-07-06T04:48:41.321Z,90.20
2018-07-06T04:49:41.297Z,90.10
2018-07-06T04:50:41.193Z,88.51
2018-07-06T04:51:41.158Z,87.20
2018-07-06T04:52:41.152Z,87.40
2018-07-06T04:53:41.076Z,89.00
2018-07-06T04:54:41.036Z,89.67
2018-07-06T04:55:41.067Z,90.59
2018-07-06T04:56:40.979Z,92.85
2018-07-06T04:57:41.003Z,94.20
2018-07-06T04:58:50.002Z,94.45
2018-07-06T04:59:40.915Z,95.36
2018-07-06T05:00:40.840Z,96.90
2018-07-06T05:01:40.791Z,98.05
2018-07-06T05:02:40.783Z,98.72
2018-07-06T05:03:40.705Z,98.00
2018-07-06T05:04:40.675Z,99.54
2018-07-06T05:05:40.703Z,99.99
2018-07-06T05:06:40.641Z,99.99
2018-07-06T05:07:40.597Z,99.99
2018-07-06T05:08:40.577Z,99.99
2018-07-06T05:09:40.523Z,99.99
2018-07-06T05:10:40.461Z,99.99
2018-07-06T05:11:40.433Z,99.99
2018-07-06T05:12:40.409Z,99.99
2018-07-06T05:13:40.369Z,99.99
2018-07-06T05:14:40.360Z,99.54
2018-07-06T05:15:40.275Z,99.99
2018-07-06T05:16:40.260Z,99.99
2018-07-06T05:17:40.216Z,99.99
2018-07-06T05:18:40.184Z,99.99
2018-07-06T05:19:40.230Z,99.99
2018-07-06T05:20:40.091Z,99.99
2018-07-06T05:21:50.525Z,99.99
2018-07-06T05:22:40.039Z,99.99
2018-07-06T05:23:40.033Z,99.99
2018-07-06T05:24:40.113Z,99.99
2018-07-06T05:25:39.945Z,99.99
2018-07-06T05:26:39.902Z,99.99
2018-07-06T05:27:39.835Z,99.99
2018-07-06T05:28:39.812Z,99.99
2018-07-06T05:29:39.805Z,99.99
2018-07-06T05:30:39.728Z,99.99
2018-07-06T05:31:39.691Z,99.99
2018-07-06T05:32:39.651Z,99.99
2018-07-06T05:33:39.642Z,99.99
2018-07-06T05:34:39.657Z,99.99
2018-07-06T05:35:39.556Z,99.99
2018-07-06T05:36:39.517Z,99.99
2018-07-06T05:37:39.489Z,99.99
2018-07-06T05:38:39.443Z,99.99
2018-07-06T05:39:39.422Z,99.99
2018-07-06T05:40:39.373Z,99.99
2018-07-06T05:41:39.350Z,99.99
2018-07-06T05:42:39.332Z,99.99
2018-07-06T05:43:39.273Z,99.99
2018-07-06T05:44:39.255Z,99.99
2018-07-06T05:45:47.758Z,99.99
2018-07-06T05:46:39.138Z,99.99
2018-07-06T05:47:39.174Z,99.99
2018-07-06T05:48:39.336Z,99.99
2018-07-06T05:49:39.112Z,99.99
2018-07-06T05:50:39.047Z,99.99
2018-07-06T05:51:38.964Z,99.99
2018-07-06T05:52:38.927Z,99.99
2018-07-06T05:53:38.891Z,99.99
2018-07-06T05:54:38.922Z,99.99
2018-07-06T05:55:38.875Z,99.99
2018-07-06T05:56:38.822Z,99.99
2018-07-06T05:57:38.745Z,99.99
2018-07-06T05:58:38.699Z,99.99
2018-07-06T05:59:38.655Z,99.99
2018-07-06T06:00:38.663Z,99.99
2018-07-06T06:01:38.586Z,99.99
2018-07-06T06:02:38.557Z,99.99
2018-07-06T06:03:38.508Z,99.99
2018-07-06T06:04:38.529Z,99.99
2018-07-06T06:05:38.457Z,99.99
2018-07-06T06:06:38.417Z,99.99
2018-07-06T06:07:38.429Z,99.99
2018-07-06T06:08:46.771Z,99.99
2018-07-06T06:09:38.300Z,99.99
2018-07-06T06:10:38.289Z,99.99
2018-07-06T06:11:38.212Z,99.99
2018-07-06T06:12:38.204Z,99.99
2018-07-06T06:13:38.163Z,99.99
2018-07-06T06:14:38.103Z,99.99
2018-07-06T06:15:38.130Z,99.99
2018-07-06T06:16:38.038Z,99.99
2018-07-06T06:17:38.016Z,99.99
2018-07-06T06:18:38.036Z,99.99
2018-07-06T06:19:37.960Z,99.99
2018-07-06T06:20:37.898Z,99.99
2018-07-06T06:21:37.877Z,99.99
2018-07-06T06:22:37.828Z,99.78
2018-07-06T06:23:37.780Z,99.99
2018-07-06T06:24:37.746Z,99.59
2018-07-06T06:25:37.725Z,99.73
2018-07-06T06:26:37.703Z,99.99
2018-07-06T06:27:37.627Z,99.40
2018-07-06T06:28:37.622Z,99.88
2018-07-06T06:29:37.567Z,99.40
2018-07-06T06:30:37.588Z,99.40
2018-07-06T06:31:37.505Z,99.30
2018-07-06T06:32:47.597Z,98.34
2018-07-06T06:33:37.493Z,98.63
2018-07-06T06:34:37.389Z,98.44
2018-07-06T06:35:37.372Z,98.48
2018-07-06T06:36:37.304Z,98.29
2018-07-06T06:37:37.267Z,99.35
2018-07-06T06:38:37.271Z,99.44
2018-07-06T06:39:37.210Z,99.40
2018-07-06T06:40:37.186Z,98.24
2018-07-06T06:41:37.126Z,98.19
2018-07-06T06:42:37.154Z,99.49
2018-07-06T06:43:37.213Z,98.44
2018-07-06T06:44:37.049Z,98.53
2018-07-06T06:45:37.124Z,99.01
2018-07-06T06:46:36.980Z,97.86
2018-07-06T06:47:36.926Z,97.19
2018-07-06T06:48:36.904Z,96.99
2018-07-06T06:49:36.857Z,96.80
2018-07-06T06:50:36.831Z,96.99
2018-07-06T06:51:36.774Z,97.38
2018-07-06T06:52:36.721Z,96.99
2018-07-06T06:53:36.746Z,98.05
2018-07-06T06:54:36.672Z,96.99
2018-07-06T06:55:47.662Z,98.05
2018-07-06T06:56:36.605Z,97.19
2018-07-06T06:57:36.556Z,96.80
2018-07-06T06:58:36.523Z,98.14
2018-07-06T06:59:36.508Z,97.47
2018-07-06T07:00:36.425Z,98.05
2018-07-06T07:01:36.408Z,96.80
2018-07-06T07:02:36.364Z,97.04
2018-07-06T07:03:36.327Z,96.85
2018-07-06T07:04:36.335Z,96.37
2018-07-06T07:05:36.283Z,96.47
2018-07-06T07:06:36.250Z,96.37
2018-07-06T07:07:36.316Z,96.08
2018-07-06T07:08:36.148Z,96.32
2018-07-06T07:09:36.141Z,96.85
2018-07-06T07:10:36.068Z,97.81
2018-07-06T07:11:36.050Z,97.14
2018-07-06T07:12:36.006Z,97.42
2018-07-06T07:13:36.021Z,95.12
2018-07-06T07:14:35.955Z,95.60
2018-07-06T07:15:35.893Z,95.70
2018-07-06T07:16:35.863Z,95.70
2018-07-06T07:17:35.823Z,95.31
2018-07-06T07:18:35.810Z,95.70
2018-07-06T07:19:35.782Z,94.97
2018-07-06T07:20:35.722Z,94.87
2018-07-06T07:21:35.677Z,94.01
2018-07-06T07:22:35.640Z,94.40
2018-07-06T07:23:35.633Z,94.49
2018-07-06T07:24:35.616Z,94.20
2018-07-06T07:25:35.546Z,93.91
2018-07-06T07:26:35.506Z,94.87
2018-07-06T07:27:35.464Z,93.62
2018-07-06T07:28:35.429Z,93.24
2018-07-06T07:29:35.419Z,93.62
2018-07-06T07:30:35.365Z,93.15
2018-07-06T07:31:35.322Z,93.82
2018-07-06T07:32:35.281Z,94.40
2018-07-06T07:33:35.249Z,94.30
2018-07-06T07:34:35.239Z,93.15
2018-07-06T07:35:35.197Z,93.62
2018-07-06T07:36:35.148Z,92.76
2018-07-06T07:37:35.119Z,92.66
2018-07-06T07:38:35.086Z,92.47
2018-07-06T07:39:35.082Z,93.43
2018-07-06T07:40:35.004Z,93.43
2018-07-06T07:41:34.984Z,93.82
2018-07-06T07:42:34.934Z,93.53
2018-07-06T07:43:34.930Z,94.25
2018-07-06T07:44:34.877Z,93.67
2018-07-06T07:45:34.842Z,93.00
2018-07-06T07:46:34.850Z,92.95
2018-07-06T07:47:34.803Z,93.05
2018-07-06T07:48:34.755Z,93.38
2018-07-06T07:49:34.698Z,93.87
2018-07-06T07:50:34.658Z,92.13
2018-07-06T07:51:34.615Z,93.00
2018-07-06T07:52:34.584Z,92.85
2018-07-06T07:53:34.562Z,92.18
2018-07-06T07:54:34.522Z,92.08
2018-07-06T07:55:34.482Z,90.69
2018-07-06T07:56:34.443Z,92.03
2018-07-06T07:57:34.405Z,92.13
2018-07-06T07:58:34.396Z,92.32
2018-07-06T07:59:34.345Z,92.71
2018-07-06T08:00:34.400Z,92.32
2018-07-06T08:01:34.347Z,92.47
2018-07-06T08:02:34.244Z,91.79
2018-07-06T08:03:34.212Z,90.92
2018-07-06T08:04:34.187Z,90.25
2018-07-06T08:05:34.133Z,90.06
2018-07-06T08:06:34.107Z,89.77
2018-07-06T08:07:34.061Z,89.91
2018-07-06T08:08:34.088Z,90.78
2018-07-06T08:09:34.043Z,89.62
2018-07-06T08:10:33.985Z,87.88
2018-07-06T08:11:35.446Z,88.95
2018-07-06T08:12:33.919Z,88.95
2018-07-06T08:13:33.882Z,89.23
2018-07-06T08:14:33.920Z,89.72
2018-07-06T08:15:33.800Z,89.33
2018-07-06T08:16:33.761Z,89.62
2018-07-06T08:17:33.745Z,88.37
2018-07-06T08:18:33.705Z,89.00
2018-07-06T08:19:33.685Z,89.53
2018-07-06T08:20:33.626Z,91.07
2018-07-06T08:21:33.582Z,90.59
2018-07-06T08:22:33.556Z,91.02
2018-07-06T08:23:33.532Z,90.83
2018-07-06T08:24:33.488Z,91.02
2018-07-06T08:25:33.497Z,91.02
2018-07-06T08:26:33.400Z,89.96
2018-07-06T08:27:33.373Z,90.06
2018-07-06T08:28:33.358Z,89.58
2018-07-06T08:29:33.310Z,89.58
2018-07-06T08:30:33.264Z,90.34
2018-07-06T08:31:33.240Z,90.16
2018-07-06T08:32:33.195Z,90.06
2018-07-06T08:33:33.192Z,90.16
2018-07-06T08:34:33.140Z,89.48
2018-07-06T08:35:33.088Z,90.25
2018-07-06T08:36:33.180Z,89.48
2018-07-06T08:37:33.033Z,89.81
2018-07-06T08:38:33.008Z,89.62
2018-07-06T08:39:33.053Z,88.95
2018-07-06T08:40:32.926Z,88.17
2018-07-06T08:41:32.909Z,89.04
2018-07-06T08:42:32.866Z,88.89
2018-07-06T08:43:32.848Z,88.60
2018-07-06T08:44:32.789Z,88.79
2018-07-06T08:45:32.739Z,87.64
2018-07-06T08:46:32.710Z,87.93
2018-07-06T08:47:32.689Z,87.45
2018-07-06T08:48:32.659Z,87.30
2018-07-06T08:49:32.610Z,86.91
2018-07-06T08:50:32.594Z,87.20
2018-07-06T08:51:32.544Z,86.43
2018-07-06T08:52:42.691Z,85.85
2018-07-06T08:53:32.486Z,86.14
2018-07-06T08:54:32.422Z,85.56
2018-07-06T08:55:32.407Z,85.56
2018-07-06T08:56:32.373Z,85.56
2018-07-06T08:57:32.333Z,85.56
2018-07-06T08:58:32.447Z,85.75
2018-07-06T08:59:32.291Z,85.75
2018-07-06T09:00:32.235Z,85.41
2018-07-06T09:01:32.209Z,85.06
2018-07-06T09:02:32.159Z,83.77
2018-07-06T09:03:32.202Z,84.39
2018-07-06T09:04:32.182Z,82.11
2018-07-06T09:05:32.065Z,79.54
2018-07-06T09:06:32.076Z,79.45
2018-07-06T09:07:32.025Z,79.64
2018-07-06T09:08:31.966Z,81.71
2018-07-06T09:09:31.989Z,75.46
2018-07-06T09:10:31.897Z,75.60
2018-07-06T09:11:31.899Z,73.69
2018-07-06T09:12:31.836Z,72.77
2018-07-06T09:13:31.853Z,71.56
2018-07-06T09:14:31.758Z,72.41
2018-07-06T09:15:31.748Z,70.70
2018-07-06T09:16:31.767Z,69.86
2018-07-06T09:17:31.690Z,67.28
2018-07-06T09:18:31.668Z,67.02
2018-07-06T09:19:31.660Z,69.63
2018-07-06T09:20:31.626Z,71.37
2018-07-06T09:21:31.553Z,73.57
2018-07-06T09:22:31.585Z,74.05
2018-07-06T09:23:31.505Z,72.83
2018-07-06T09:24:31.479Z,72.92
2018-07-06T09:25:31.516Z,73.41
2018-07-06T09:26:31.431Z,72.77
2018-07-06T09:27:31.346Z,72.05
2018-07-06T09:28:31.462Z,73.53
2018-07-06T09:29:31.334Z,76.24
2018-07-06T09:30:31.348Z,73.39
2018-07-06T09:31:31.254Z,76.01
2018-07-06T09:32:31.227Z,74.94
2018-07-06T09:33:31.181Z,75.78
2018-07-06T09:34:31.156Z,77.20
2018-07-06T09:35:31.135Z,73.99
2018-07-06T09:36:31.214Z,71.66
2018-07-06T09:37:31.065Z,72.44
2018-07-06T09:38:31.017Z,71.73
2018-07-06T09:39:30.990Z,69.15
2018-07-06T09:40:30.976Z,69.63
2018-07-06T09:41:30.963Z,70.11
2018-07-06T09:42:30.887Z,69.82
2018-07-06T09:43:30.877Z,70.40
2018-07-06T09:44:30.853Z,71.44
2018-07-06T09:45:30.835Z,73.60
2018-07-06T09:46:30.799Z,70.47
2018-07-06T09:47:30.755Z,70.03
2018-07-06T09:48:30.716Z,70.06
2018-07-06T09:49:30.675Z,68.15
2018-07-06T09:50:30.665Z,67.54
2018-07-06T09:51:30.608Z,66.89
2018-07-06T09:52:30.620Z,65.79
2018-07-06T09:53:30.553Z,66.44
2018-07-06T09:54:30.565Z,67.11
2018-07-06T09:55:30.524Z,65.69
2018-07-06T09:56:30.480Z,65.98
2018-07-06T09:57:30.483Z,68.08
2018-07-06T09:58:30.415Z,68.28
2018-07-06T09:59:30.391Z,68.18
2018-07-06T10:00:30.358Z,68.44
2018-07-06T10:01:30.413Z,68.15
2018-07-06T10:02:30.340Z,68.15
2018-07-06T10:03:30.260Z,69.76
2018-07-06T10:04:30.253Z,68.54
2018-07-06T10:05:30.228Z,66.96
2018-07-06T10:06:30.209Z,66.27
2018-07-06T10:07:30.157Z,64.04
2018-07-06T10:08:30.151Z,62.68
2018-07-06T10:09:30.108Z,64.43
2018-07-06T10:10:30.089Z,63.75
2018-07-06T10:11:30.050Z,61.80
2018-07-06T10:12:30.046Z,63.13
2018-07-06T10:13:30.012Z,62.55
2018-07-06T10:14:29.976Z,62.42
2018-07-06T10:15:29.946Z,63.85
2018-07-06T10:16:29.905Z,65.14
2018-07-06T10:17:29.885Z,64.43
2018-07-06T10:18:29.926Z,65.59
2018-07-06T10:19:29.891Z,66.08
2018-07-06T10:20:29.811Z,66.21
2018-07-06T10:21:29.799Z,67.76
2018-07-06T10:22:29.755Z,65.17
2018-07-06T10:23:29.746Z,65.27
2018-07-06T10:24:29.718Z,63.95
2018-07-06T10:25:29.658Z,65.17
2018-07-06T10:26:29.628Z,64.78
2018-07-06T10:27:29.630Z,66.14
2018-07-06T10:28:39.289Z,64.98
2018-07-06T10:29:29.551Z,64.04
2018-07-06T10:30:29.525Z,64.92
2018-07-06T10:31:29.491Z,64.36
2018-07-06T10:32:29.480Z,64.59
2018-07-06T10:33:29.440Z,66.47
2018-07-06T10:34:29.455Z,64.04
2018-07-06T10:35:29.380Z,63.97
2018-07-06T10:36:29.370Z,60.57
2018-07-06T10:37:29.320Z,61.35
2018-07-06T10:38:29.313Z,62.45
2018-07-06T10:39:29.346Z,62.26
2018-07-06T10:40:29.307Z,61.61
2018-07-06T10:41:29.225Z,62.58
2018-07-06T10:42:29.201Z,60.44
2018-07-06T10:43:29.168Z,61.38
2018-07-06T10:44:29.132Z,62.13
2018-07-06T10:45:29.133Z,62.23
2018-07-06T10:46:29.079Z,63.04
2018-07-06T10:47:29.053Z,64.30
2018-07-06T10:48:29.040Z,63.13
2018-07-06T10:49:28.991Z,62.81
2018-07-06T10:50:28.995Z,63.17
2018-07-06T10:51:28.944Z,61.80
2018-07-06T10:52:37.781Z,62.87
2018-07-06T10:53:28.873Z,62.65
2018-07-06T10:54:28.840Z,61.87
2018-07-06T10:55:28.873Z,62.26
2018-07-06T10:56:28.802Z,63.81
2018-07-06T10:57:28.774Z,62.16
2018-07-06T10:58:28.768Z,61.80
2018-07-06T10:59:28.742Z,61.22
2018-07-06T11:00:28.711Z,61.54
2018-07-06T11:01:28.685Z,61.38
2018-07-06T11:02:28.637Z,59.63
2018-07-06T11:03:28.612Z,61.47
2018-07-06T11:04:28.583Z,59.79
2018-07-06T11:05:28.603Z,59.53
2018-07-06T11:06:28.565Z,59.23
2018-07-06T11:07:28.525Z,59.33
2018-07-06T11:08:28.476Z,58.62
2018-07-06T11:09:28.468Z,60.70
2018-07-06T11:10:28.426Z,59.23
2018-07-06T11:11:28.463Z,61.41
2018-07-06T11:12:28.369Z,60.85
2018-07-06T11:13:28.361Z,60.14
2018-07-06T11:14:28.336Z,59.88
2018-07-06T11:15:28.284Z,57.90
2018-07-06T11:16:28.260Z,59.75
2018-07-06T11:17:28.294Z,60.56
2018-07-06T11:18:28.252Z,59.66
2018-07-06T11:19:28.198Z,60.79
2018-07-06T11:20:28.154Z,59.50
2018-07-06T11:21:28.143Z,61.58
2018-07-06T11:22:28.120Z,62.26
2018-07-06T11:23:28.095Z,61.09
2018-07-06T11:24:28.058Z,61.38
2018-07-06T11:25:28.084Z,60.83
2018-07-06T11:26:27.997Z,60.64
2018-07-06T11:27:27.990Z,62.19
2018-07-06T11:28:27.941Z,61.05
2018-07-06T11:29:27.912Z,59.28
2018-07-06T11:30:27.895Z,60.67
2018-07-06T11:31:27.874Z,62.26
2018-07-06T11:32:27.872Z,61.21
2018-07-06T11:33:27.799Z,59.85
2018-07-06T11:34:27.779Z,58.59
2018-07-06T11:35:27.769Z,58.03
2018-07-06T11:36:27.720Z,57.22
2018-07-06T11:37:27.701Z,59.07
2018-07-06T11:38:27.705Z,59.85
2018-07-06T11:39:27.677Z,60.46
2018-07-06T11:40:27.616Z,56.96
2018-07-06T11:41:27.593Z,55.96
2018-07-06T11:42:27.636Z,58.20
2018-07-06T11:43:27.529Z,56.15
2018-07-06T11:44:27.510Z,58.29
2018-07-06T11:45:27.466Z,58.59
2018-07-06T11:46:27.450Z,58.13
2018-07-06T11:47:27.466Z,57.90
2018-07-06T11:48:27.393Z,58.51
2018-07-06T11:49:38.347Z,57.25
2018-07-06T11:50:27.443Z,57.12
2018-07-06T11:51:27.308Z,58.78
2018-07-06T11:52:27.316Z,58.20
2018-07-06T11:53:27.278Z,57.32
2018-07-06T11:54:27.350Z,57.32
2018-07-06T11:55:27.221Z,56.32
2018-07-06T11:56:27.177Z,57.81
2018-07-06T11:57:27.161Z,58.78
2018-07-06T11:58:27.153Z,59.59
2018-07-06T11:59:27.204Z,58.13
2018-07-06T12:00:27.093Z,57.64
2018-07-06T12:01:27.060Z,57.57
2018-07-06T12:02:27.025Z,57.89
2018-07-06T12:03:27.028Z,54.65
2018-07-06T12:04:27.039Z,55.30
2018-07-06T12:05:26.960Z,57.42
2018-07-06T12:06:26.924Z,58.36
2018-07-06T12:07:26.914Z,59.50
2018-07-06T12:08:26.879Z,59.95
2018-07-06T12:09:26.861Z,60.31
2018-07-06T12:10:26.814Z,61.29
2018-07-06T12:11:26.791Z,61.13
2018-07-06T12:12:26.774Z,61.71
2018-07-06T12:13:26.776Z,61.45
2018-07-06T12:14:26.735Z,61.19
2018-07-06T12:15:26.697Z,63.01
2018-07-06T12:16:26.642Z,65.50
2018-07-06T12:17:26.609Z,65.34
2018-07-06T12:18:26.594Z,64.27
2018-07-06T12:19:26.588Z,64.01
2018-07-06T12:20:26.527Z,65.56
2018-07-06T12:21:26.542Z,63.98
2018-07-06T12:22:26.467Z,62.81
2018-07-06T12:23:26.433Z,61.45
2018-07-06T12:24:26.430Z,60.58
2018-07-06T12:25:26.377Z,61.25
2018-07-06T12:26:26.351Z,60.16
2018-07-06T12:27:26.326Z,61.04
2018-07-06T12:28:26.271Z,61.65
2018-07-06T12:29:26.250Z,61.58
2018-07-06T12:30:26.244Z,60.74
2018-07-06T12:31:26.200Z,60.83
2018-07-06T12:32:26.166Z,60.96
2018-07-06T12:33:26.129Z,59.11
2018-07-06T12:34:26.104Z,59.57
2018-07-06T12:35:26.099Z,59.28
2018-07-06T12:36:26.067Z,60.83
2018-07-06T12:37:26.007Z,59.47
2018-07-06T12:38:25.987Z,58.50
2018-07-06T12:39:25.951Z,59.86
2018-07-06T12:40:25.953Z,60.05
2018-07-06T12:41:25.880Z,58.50
2018-07-06T12:42:25.859Z,57.98
2018-07-06T12:43:25.850Z,59.64
2018-07-06T12:44:25.812Z,60.31
2018-07-06T12:45:25.872Z,60.02
2018-07-06T12:46:25.764Z,60.83
2018-07-06T12:47:25.710Z,60.05
2018-07-06T12:48:25.726Z,59.15
2018-07-06T12:49:25.658Z,59.64
2018-07-06T12:50:25.635Z,60.25
2018-07-06T12:51:25.628Z,58.98
2018-07-06T12:52:25.602Z,61.41